Springfield, OH (45503)

7:24 PM EST on February 07, 2016 (GMT -0500)
Springfield OH | | Change Station
CLOSE
Current Station
Personal Weather Station
Location: Springfield, OH
Elevation: 1040 ft
Nearby Weather Stations

Elev 1040 ft 39.98 °N, 83.78 °W | Updated 7 minutes ago

Partly Cloudy
Partly Cloudy
45.4 °F
Feels Like 45 °F
N
1.0
Wind Variable Wind from SW
Gusts 4.0 mph

Today
High -- | Low -- °F
--% Chance of Precip.
Yesterday
High -- | Low -- °F
Precip. -- in
Pressure 29.89 in
Visibility 10.0 miles
Clouds Scattered Clouds 11000 ft
Windchill 45 °F
Dew Point 23 °F
Humidity 42%
Rainfall 0.00 in
Snow Depth Not available.
7:37 AM 6:01 PM
Waning Crescent, 1% visible
METAR KSGH 072356Z AUTO 18006KT 10SM SCT110 07/M04 A2987 RMK AO2 56007 T00661038 10111 20066 SLP120
Pressure 29.89 in
Visibility 10.0 miles
Clouds Scattered Clouds 11000 ft
Windchill 45 °F
Dew Point 23 °F
Humidity 42%
Rainfall 0.00 in
Snow Depth Not available.
7:37 AM 6:01 PM
Waning Crescent, 1% visible
METAR KSGH 072356Z AUTO 18006KT 10SM SCT110 07/M04 A2987 RMK AO2 56007 T00661038 10111 20066 SLP120

10-Day Weather Forecast

Almanac

Astronomy

Feb. 07, 2016 Rise Set
Actual Time
Civil Twilight
Nautical Twilight
Astronomical Twilight
Moon
Length of Visible Light
Length of Day
Tomorrow will be .
, % of the Moon is Illuminated

Today's Extremes

State Highs State Lows

Community

WunderPhotos

Upload Photos

1,891,335 photos uploaded!

WunderBlog® & News

Nearby

Air Quality

  Air Quality AQ Index Pollutant
Not available.

Snow Depth

Station Depth Elevation

Earthquake Activity

City Distance Mag. Time & Date
Minimum magnitude displayed is 2.5.

Coastal Water Temperatures

Place Temperature

Stations

Nearby Weather Stations

Station Location Temp. Windchill Dew Point Humidity Wind Precip. Elev Updated Type
                   

Watches & Warnings

There are currently no watches in effect.